createdAt,value
2022-07-30T00:00:59.640Z,1004.88
2022-07-30T00:01:59.623Z,1004.85
2022-07-30T00:02:59.609Z,1004.82
2022-07-30T00:03:59.609Z,1004.83
2022-07-30T00:04:59.585Z,1004.86
2022-07-30T00:05:59.580Z,1004.87
2022-07-30T00:06:59.563Z,1004.88
2022-07-30T00:07:59.577Z,1004.81
2022-07-30T00:08:59.550Z,1004.79
2022-07-30T00:09:59.542Z,1004.82
2022-07-30T00:10:59.523Z,1004.8
2022-07-30T00:11:59.511Z,1004.78
2022-07-30T00:12:59.506Z,1004.81
2022-07-30T00:13:59.494Z,1004.75
2022-07-30T00:14:59.489Z,1004.79
2022-07-30T00:15:59.464Z,1004.82
2022-07-30T00:16:59.464Z,1004.8
2022-07-30T00:17:59.453Z,1004.8
2022-07-30T00:18:59.435Z,1004.79
2022-07-30T00:19:59.422Z,1004.83
2022-07-30T00:20:59.425Z,1004.77
2022-07-30T00:21:59.407Z,1004.74
2022-07-30T00:22:59.401Z,1004.76
2022-07-30T00:23:59.383Z,1004.74
2022-07-30T00:24:59.380Z,1004.72
2022-07-30T00:25:59.362Z,1004.7
2022-07-30T00:26:59.358Z,1004.7
2022-07-30T00:27:59.338Z,1004.67
2022-07-30T00:28:59.334Z,1004.65
2022-07-30T00:29:59.318Z,1004.67
2022-07-30T00:30:59.307Z,1004.71
2022-07-30T00:31:59.293Z,1004.64
2022-07-30T00:32:59.294Z,1004.65
2022-07-30T00:33:59.283Z,1004.68
2022-07-30T00:34:59.258Z,1004.67
2022-07-30T00:35:59.251Z,1004.66
2022-07-30T00:36:59.241Z,1004.65
2022-07-30T00:37:59.229Z,1004.69
2022-07-30T00:38:59.223Z,1004.63
2022-07-30T00:39:59.220Z,1004.68
2022-07-30T00:40:59.200Z,1004.68
2022-07-30T00:41:59.200Z,1004.73
2022-07-30T00:42:59.179Z,1004.68
2022-07-30T00:43:59.171Z,1004.7
2022-07-30T00:44:59.161Z,1004.66
2022-07-30T00:45:59.145Z,1004.65
2022-07-30T00:46:59.137Z,1004.69
2022-07-30T00:47:59.125Z,1004.67
2022-07-30T00:48:59.116Z,1004.66
2022-07-30T00:49:59.112Z,1004.63
2022-07-30T00:50:59.092Z,1004.65
2022-07-30T00:51:59.077Z,1004.61
2022-07-30T00:52:59.067Z,1004.56
2022-07-30T00:53:59.062Z,1004.58
2022-07-30T00:54:59.048Z,1004.59
2022-07-30T00:55:59.037Z,1004.54
2022-07-30T00:56:59.039Z,1004.56
2022-07-30T00:57:59.037Z,1004.58
2022-07-30T00:58:59.006Z,1004.53
2022-07-30T00:59:58.995Z,1004.54
2022-07-30T01:00:58.988Z,1004.54
2022-07-30T01:01:58.973Z,1004.49
2022-07-30T01:02:58.957Z,1004.56
2022-07-30T01:03:58.963Z,1004.53
2022-07-30T01:04:58.946Z,1004.58
2022-07-30T01:05:58.926Z,1004.53
2022-07-30T01:06:58.946Z,1004.56
2022-07-30T01:07:58.907Z,1004.5
2022-07-30T01:08:58.901Z,1004.49
2022-07-30T01:09:58.897Z,1004.51
2022-07-30T01:10:58.881Z,1004.44
2022-07-30T01:11:58.873Z,1004.52
2022-07-30T01:12:58.857Z,1004.48
2022-07-30T01:13:58.848Z,1004.44
2022-07-30T01:14:58.841Z,1004.43
2022-07-30T01:15:58.818Z,1004.46
2022-07-30T01:16:58.822Z,1004.47
2022-07-30T01:17:58.801Z,1004.47
2022-07-30T01:18:58.836Z,1004.48
2022-07-30T01:19:58.778Z,1004.52
2022-07-30T01:20:58.763Z,1004.47
2022-07-30T01:21:58.760Z,1004.47
2022-07-30T01:22:58.754Z,1004.45
2022-07-30T01:23:58.738Z,1004.48
2022-07-30T01:24:58.720Z,1004.46
2022-07-30T01:25:58.724Z,1004.41
2022-07-30T01:26:58.710Z,1004.41
2022-07-30T01:27:58.698Z,1004.41
2022-07-30T01:28:58.679Z,1004.49
2022-07-30T01:29:58.689Z,1004.38
2022-07-30T01:30:58.657Z,1004.43
2022-07-30T01:31:58.649Z,1004.41
2022-07-30T01:32:58.640Z,1004.38
2022-07-30T01:33:58.631Z,1004.42
2022-07-30T01:34:58.618Z,1004.39
2022-07-30T01:35:58.609Z,1004.39
2022-07-30T01:36:58.596Z,1004.42
2022-07-30T01:37:58.585Z,1004.38
2022-07-30T01:38:58.571Z,1004.37
2022-07-30T01:39:58.566Z,1004.34
2022-07-30T01:40:58.556Z,1004.34
2022-07-30T01:41:58.544Z,1004.38
2022-07-30T01:42:58.536Z,1004.35
2022-07-30T01:43:58.515Z,1004.34
2022-07-30T01:44:58.512Z,1004.34
2022-07-30T01:45:58.496Z,1004.39
2022-07-30T01:46:58.490Z,1004.35
2022-07-30T01:47:58.475Z,1004.4
2022-07-30T01:48:58.465Z,1004.38
2022-07-30T01:49:58.457Z,1004.41
2022-07-30T01:50:58.445Z,1004.4
2022-07-30T01:51:58.438Z,1004.4
2022-07-30T01:52:58.422Z,1004.4
2022-07-30T01:53:58.419Z,1004.34
2022-07-30T01:54:58.401Z,1004.43
2022-07-30T01:55:58.398Z,1004.4
2022-07-30T01:56:58.381Z,1004.33
2022-07-30T01:57:58.369Z,1004.36
2022-07-30T01:58:58.357Z,1004.32
2022-07-30T01:59:58.347Z,1004.37
2022-07-30T02:00:58.336Z,1004.36
2022-07-30T02:01:58.324Z,1004.43
2022-07-30T02:02:58.321Z,1004.38
2022-07-30T02:03:58.301Z,1004.39
2022-07-30T02:04:58.314Z,1004.51
2022-07-30T02:05:58.287Z,1004.41
2022-07-30T02:06:58.270Z,1004.45
2022-07-30T02:07:58.266Z,1004.48
2022-07-30T02:08:58.249Z,1004.38
2022-07-30T02:09:58.241Z,1004.36
2022-07-30T02:10:58.233Z,1004.41
2022-07-30T02:11:58.215Z,1004.36
2022-07-30T02:12:58.209Z,1004.38
2022-07-30T02:13:58.204Z,1004.42
2022-07-30T02:14:58.199Z,1004.38
2022-07-30T02:15:58.177Z,1004.36
2022-07-30T02:16:58.165Z,1004.33
2022-07-30T02:17:58.154Z,1004.38
2022-07-30T02:18:58.140Z,1004.37
2022-07-30T02:19:58.137Z,1004.36
2022-07-30T02:20:58.123Z,1004.32
2022-07-30T02:21:58.105Z,1004.35
2022-07-30T02:22:58.106Z,1004.36
2022-07-30T02:23:58.083Z,1004.42
2022-07-30T02:24:58.079Z,1004.33
2022-07-30T02:25:58.077Z,1004.31
2022-07-30T02:26:58.054Z,1004.33
2022-07-30T02:27:58.044Z,1004.33
2022-07-30T02:28:58.045Z,1004.29
2022-07-30T02:29:58.036Z,1004.31
2022-07-30T02:30:58.023Z,1004.39
2022-07-30T02:31:58.001Z,1004.36
2022-07-30T02:32:57.990Z,1004.36
2022-07-30T02:33:57.978Z,1004.39
2022-07-30T02:34:57.970Z,1004.34
2022-07-30T02:35:57.966Z,1004.37
2022-07-30T02:36:57.951Z,1004.32
2022-07-30T02:37:57.937Z,1004.31
2022-07-30T02:38:57.927Z,1004.4
2022-07-30T02:39:57.919Z,1004.31
2022-07-30T02:40:57.906Z,1004.38
2022-07-30T02:41:57.914Z,1004.37
2022-07-30T02:42:57.885Z,1004.41
2022-07-30T02:43:57.867Z,1004.42
2022-07-30T02:44:57.859Z,1004.38
2022-07-30T02:45:57.850Z,1004.36
2022-07-30T02:46:57.836Z,1004.4
2022-07-30T02:47:57.836Z,1004.41
2022-07-30T02:48:57.815Z,1004.42
2022-07-30T02:49:57.810Z,1004.45
2022-07-30T02:50:57.797Z,1004.45
2022-07-30T02:51:57.793Z,1004.5
2022-07-30T02:52:57.791Z,1004.47
2022-07-30T02:53:57.765Z,1004.42
2022-07-30T02:54:57.757Z,1004.45
2022-07-30T02:55:57.746Z,1004.48
2022-07-30T02:56:57.729Z,1004.5
2022-07-30T02:57:57.725Z,1004.48
2022-07-30T02:58:57.722Z,1004.44
2022-07-30T02:59:57.709Z,1004.55
2022-07-30T03:00:57.688Z,1004.56
2022-07-30T03:01:57.680Z,1004.53
2022-07-30T03:02:57.666Z,1004.52
2022-07-30T03:03:57.658Z,1004.51
2022-07-30T03:04:57.642Z,1004.53
2022-07-30T03:05:57.649Z,1004.52
2022-07-30T03:06:57.628Z,1004.56
2022-07-30T03:07:57.615Z,1004.55
2022-07-30T03:08:57.600Z,1004.53
2022-07-30T03:09:57.588Z,1004.51
2022-07-30T03:10:57.586Z,1004.51
2022-07-30T03:11:57.571Z,1004.51
2022-07-30T03:12:57.560Z,1004.54
2022-07-30T03:13:57.553Z,1004.53
2022-07-30T03:14:57.553Z,1004.52
2022-07-30T03:15:57.526Z,1004.52
2022-07-30T03:16:57.516Z,1004.52
2022-07-30T03:17:57.522Z,1004.53
2022-07-30T03:18:57.489Z,1004.53
2022-07-30T03:19:57.480Z,1004.52
2022-07-30T03:20:57.473Z,1004.57
2022-07-30T03:21:57.456Z,1004.57
2022-07-30T03:22:57.449Z,1004.6
2022-07-30T03:23:57.438Z,1004.61
2022-07-30T03:24:57.439Z,1004.62
2022-07-30T03:25:57.423Z,1004.59
2022-07-30T03:26:57.405Z,1004.6
2022-07-30T03:27:57.396Z,1004.64
2022-07-30T03:28:57.379Z,1004.63
2022-07-30T03:29:57.376Z,1004.67
2022-07-30T03:30:57.364Z,1004.61
2022-07-30T03:31:57.349Z,1004.65
2022-07-30T03:32:57.338Z,1004.65
2022-07-30T03:33:57.337Z,1004.66
2022-07-30T03:34:57.320Z,1004.63
2022-07-30T03:35:57.318Z,1004.7
2022-07-30T03:36:57.297Z,1004.65
2022-07-30T03:37:57.289Z,1004.64
2022-07-30T03:38:57.278Z,1004.67
2022-07-30T03:39:57.269Z,1004.71
2022-07-30T03:40:57.277Z,1004.67
2022-07-30T03:41:57.241Z,1004.74
2022-07-30T03:42:57.234Z,1004.68
2022-07-30T03:43:57.220Z,1004.72
2022-07-30T03:44:57.213Z,1004.77
2022-07-30T03:45:57.217Z,1004.77
2022-07-30T03:46:57.196Z,1004.76
2022-07-30T03:47:57.181Z,1004.78
2022-07-30T03:48:57.177Z,1004.75
2022-07-30T03:49:57.159Z,1004.74
2022-07-30T03:50:57.154Z,1004.74
2022-07-30T03:51:57.146Z,1004.75
2022-07-30T03:52:57.124Z,1004.75
2022-07-30T03:53:57.115Z,1004.74
2022-07-30T03:54:57.112Z,1004.78
2022-07-30T03:55:57.099Z,1004.78
2022-07-30T03:56:57.084Z,1004.82
2022-07-30T03:57:57.075Z,1004.77
2022-07-30T03:58:57.064Z,1004.82
2022-07-30T03:59:57.055Z,1004.83
2022-07-30T04:00:57.069Z,1004.81
2022-07-30T04:01:57.033Z,1004.83
2022-07-30T04:02:57.023Z,1004.87
2022-07-30T04:03:57.027Z,1004.88
2022-07-30T04:04:57.002Z,1004.82
2022-07-30T04:05:56.983Z,1004.87
2022-07-30T04:06:56.987Z,1004.88
2022-07-30T04:07:56.967Z,1004.94
2022-07-30T04:08:56.978Z,1004.95
2022-07-30T04:09:56.943Z,1004.98
2022-07-30T04:10:56.927Z,1005
2022-07-30T04:11:56.921Z,1004.95
2022-07-30T04:12:56.913Z,1005.03
2022-07-30T04:13:56.923Z,1005
2022-07-30T04:14:56.909Z,1004.99
2022-07-30T04:15:56.873Z,1004.97
2022-07-30T04:16:56.865Z,1004.99
2022-07-30T04:17:56.852Z,1004.99
2022-07-30T04:18:56.854Z,1005.04
2022-07-30T04:19:56.839Z,1005
2022-07-30T04:20:56.819Z,1005
2022-07-30T04:21:56.834Z,1005.05
2022-07-30T04:22:56.840Z,1005.01
2022-07-30T04:23:56.789Z,1005.05
2022-07-30T04:24:56.791Z,1005.09
2022-07-30T04:25:56.770Z,1005.02
2022-07-30T04:26:56.756Z,1005.13
2022-07-30T04:27:56.749Z,1005.05
2022-07-30T04:28:56.794Z,1005.08
2022-07-30T04:29:56.730Z,1005.13
2022-07-30T04:30:56.719Z,1005.12
2022-07-30T04:31:56.706Z,1005.08
2022-07-30T04:32:56.702Z,1005.1
2022-07-30T04:33:56.679Z,1005.16
2022-07-30T04:34:56.689Z,1005.12
2022-07-30T04:35:56.662Z,1005.12
2022-07-30T04:36:56.662Z,1005.17
2022-07-30T04:37:56.654Z,1005.19
2022-07-30T04:38:56.629Z,1005.16
2022-07-30T04:39:56.618Z,1005.14
2022-07-30T04:40:56.610Z,1005.17
2022-07-30T04:41:56.598Z,1005.22
2022-07-30T04:42:56.586Z,1005.21
2022-07-30T04:43:56.579Z,1005.17
2022-07-30T04:44:56.570Z,1005.19
2022-07-30T04:45:56.555Z,1005.18
2022-07-30T04:46:56.539Z,1005.19
2022-07-30T04:47:56.530Z,1005.21
2022-07-30T04:48:56.519Z,1005.19
2022-07-30T04:49:56.509Z,1005.19
2022-07-30T04:50:56.499Z,1005.16
2022-07-30T04:51:56.493Z,1005.22
2022-07-30T04:52:56.478Z,1005.18
2022-07-30T04:53:56.464Z,1005.18
2022-07-30T04:54:56.470Z,1005.2
2022-07-30T04:55:56.447Z,1005.2
2022-07-30T04:56:56.434Z,1005.23
2022-07-30T04:57:56.423Z,1005.21
2022-07-30T04:58:56.415Z,1005.15
2022-07-30T04:59:56.425Z,1005.22
2022-07-30T05:00:56.402Z,1005.21
2022-07-30T05:01:56.379Z,1005.19
2022-07-30T05:02:56.372Z,1005.23
2022-07-30T05:03:56.362Z,1005.25
2022-07-30T05:04:56.355Z,1005.21
2022-07-30T05:05:56.355Z,1005.21
2022-07-30T05:06:56.327Z,1005.28
2022-07-30T05:07:56.322Z,1005.29
2022-07-30T05:08:56.315Z,1005.32
2022-07-30T05:09:56.325Z,1005.29
2022-07-30T05:10:56.285Z,1005.3
2022-07-30T05:11:56.277Z,1005.33
2022-07-30T05:12:56.278Z,1005.3
2022-07-30T05:13:56.254Z,1005.33
2022-07-30T05:14:56.235Z,1005.28
2022-07-30T05:15:56.230Z,1005.34
2022-07-30T05:16:56.218Z,1005.32
2022-07-30T05:17:56.215Z,1005.33
2022-07-30T05:18:56.221Z,1005.38
2022-07-30T05:19:56.206Z,1005.37
2022-07-30T05:20:56.174Z,1005.38
2022-07-30T05:21:56.162Z,1005.37
2022-07-30T05:22:56.168Z,1005.41
2022-07-30T05:23:56.167Z,1005.45
2022-07-30T05:24:56.130Z,1005.43
2022-07-30T05:25:56.126Z,1005.42
2022-07-30T05:26:56.120Z,1005.42
2022-07-30T05:27:56.101Z,1005.46
2022-07-30T05:28:56.094Z,1005.46
2022-07-30T05:29:56.079Z,1005.43
2022-07-30T05:30:56.072Z,1005.45
2022-07-30T05:31:56.082Z,1005.41
2022-07-30T05:32:56.048Z,1005.43
2022-07-30T05:33:56.031Z,1005.4
2022-07-30T05:34:56.027Z,1005.43
2022-07-30T05:35:56.018Z,1005.43
2022-07-30T05:36:56.006Z,1005.41
2022-07-30T05:37:55.999Z,1005.43
2022-07-30T05:38:55.987Z,1005.46
2022-07-30T05:39:55.969Z,1005.4
2022-07-30T05:40:55.968Z,1005.4
2022-07-30T05:41:55.951Z,1005.42
2022-07-30T05:42:55.937Z,1005.47
2022-07-30T05:43:55.967Z,1005.46
2022-07-30T05:44:55.919Z,1005.47
2022-07-30T05:45:55.911Z,1005.49
2022-07-30T05:46:55.894Z,1005.49
2022-07-30T05:47:55.903Z,1005.5
2022-07-30T05:48:55.876Z,1005.48
2022-07-30T05:49:55.867Z,1005.46
2022-07-30T05:50:55.850Z,1005.45
2022-07-30T05:51:55.845Z,1005.5
2022-07-30T05:52:55.828Z,1005.48
2022-07-30T05:53:55.823Z,1005.5
2022-07-30T05:54:55.808Z,1005.49
2022-07-30T05:55:55.803Z,1005.5
2022-07-30T05:56:55.811Z,1005.49
2022-07-30T05:57:55.777Z,1005.53
2022-07-30T05:58:55.765Z,1005.51
2022-07-30T05:59:55.757Z,1005.56
2022-07-30T06:00:55.747Z,1005.55
2022-07-30T06:01:55.737Z,1005.5
2022-07-30T06:02:55.723Z,1005.51
2022-07-30T06:03:55.722Z,1005.51
2022-07-30T06:04:55.703Z,1005.48
2022-07-30T06:05:55.688Z,1005.51
2022-07-30T06:06:55.674Z,1005.53
2022-07-30T06:07:55.670Z,1005.48
2022-07-30T06:08:55.669Z,1005.51
2022-07-30T06:09:55.648Z,1005.56
2022-07-30T06:10:55.663Z,1005.55
2022-07-30T06:11:55.628Z,1005.57
2022-07-30T06:12:55.618Z,1005.54
2022-07-30T06:13:55.607Z,1005.57
2022-07-30T06:14:55.605Z,1005.54
2022-07-30T06:15:55.580Z,1005.6
2022-07-30T06:16:55.575Z,1005.54
2022-07-30T06:17:55.558Z,1005.58
2022-07-30T06:18:55.555Z,1005.59
2022-07-30T06:19:55.541Z,1005.61
2022-07-30T06:20:55.539Z,1005.59
2022-07-30T06:21:55.525Z,1005.6
2022-07-30T06:22:55.511Z,1005.6
2022-07-30T06:23:55.498Z,1005.62
2022-07-30T06:24:55.494Z,1005.59
2022-07-30T06:25:55.476Z,1005.59
2022-07-30T06:26:55.477Z,1005.57
2022-07-30T06:27:55.454Z,1005.53
2022-07-30T06:28:55.454Z,1005.57
2022-07-30T06:29:55.462Z,1005.56
2022-07-30T06:30:55.418Z,1005.54
2022-07-30T06:31:55.408Z,1005.6
2022-07-30T06:32:55.415Z,1005.6
2022-07-30T06:33:55.393Z,1005.59
2022-07-30T06:34:55.375Z,1005.58
2022-07-30T06:35:55.367Z,1005.67
2022-07-30T06:36:55.358Z,1005.66
2022-07-30T06:37:55.393Z,1005.73
2022-07-30T06:38:55.351Z,1005.6
2022-07-30T06:39:55.324Z,1005.63
2022-07-30T06:40:55.318Z,1005.6
2022-07-30T06:41:55.299Z,1005.58
2022-07-30T06:42:55.286Z,1005.62
2022-07-30T06:43:55.289Z,1005.61
2022-07-30T06:44:55.282Z,1005.59
2022-07-30T06:45:55.260Z,1005.65
2022-07-30T06:46:55.260Z,1005.67
2022-07-30T06:47:55.238Z,1005.62
2022-07-30T06:48:55.225Z,1005.65
2022-07-30T06:49:55.222Z,1005.63
2022-07-30T06:50:55.211Z,1005.65
2022-07-30T06:51:55.190Z,1005.66
2022-07-30T06:52:55.185Z,1005.67
2022-07-30T06:53:55.169Z,1005.67
2022-07-30T06:54:55.168Z,1005.64
2022-07-30T06:55:55.155Z,1005.65
2022-07-30T06:56:55.141Z,1005.66
2022-07-30T06:57:55.128Z,1005.62
2022-07-30T06:58:55.114Z,1005.7
2022-07-30T06:59:55.113Z,1005.63
2022-07-30T07:00:55.096Z,1005.68
2022-07-30T07:01:55.086Z,1005.74
2022-07-30T07:02:55.076Z,1005.75
2022-07-30T07:03:55.065Z,1005.74
2022-07-30T07:04:55.050Z,1005.71
2022-07-30T07:05:55.038Z,1005.76
2022-07-30T07:06:55.032Z,1005.76
2022-07-30T07:07:55.024Z,1005.71
2022-07-30T07:08:55.017Z,1005.74
2022-07-30T07:09:55.001Z,1005.72
2022-07-30T07:10:54.995Z,1005.75
2022-07-30T07:11:54.975Z,1005.77
2022-07-30T07:12:54.965Z,1005.77
2022-07-30T07:13:54.961Z,1005.78
2022-07-30T07:14:54.955Z,1005.81
2022-07-30T07:15:54.934Z,1005.76
2022-07-30T07:16:54.933Z,1005.84
2022-07-30T07:17:54.913Z,1005.84
2022-07-30T07:18:54.900Z,1005.81
2022-07-30T07:19:54.890Z,1005.81
2022-07-30T07:20:54.885Z,1005.8
2022-07-30T07:21:54.870Z,1005.72
2022-07-30T07:22:54.887Z,1005.77
2022-07-30T07:23:54.850Z,1005.77
2022-07-30T07:24:54.837Z,1005.78
2022-07-30T07:25:54.826Z,1005.8
2022-07-30T07:26:54.842Z,1005.81
2022-07-30T07:27:54.808Z,1005.79
2022-07-30T07:28:54.791Z,1005.85
2022-07-30T07:29:54.801Z,1005.7
2022-07-30T07:30:54.775Z,1005.74
2022-07-30T07:31:54.765Z,1005.71
2022-07-30T07:32:54.753Z,1005.74
2022-07-30T07:33:54.740Z,1005.65
2022-07-30T07:34:54.774Z,1005.72
2022-07-30T07:35:54.726Z,1005.68
2022-07-30T07:36:54.713Z,1005.64
2022-07-30T07:37:54.700Z,1005.69
2022-07-30T07:38:54.690Z,1005.64
2022-07-30T07:39:54.709Z,1005.67
2022-07-30T07:40:54.677Z,1005.65
2022-07-30T07:41:54.661Z,1005.68
2022-07-30T07:42:54.640Z,1005.72
2022-07-30T07:43:54.647Z,1005.67
2022-07-30T07:44:54.628Z,1005.69
2022-07-30T07:45:54.620Z,1005.67
2022-07-30T07:46:54.613Z,1005.66
2022-07-30T07:47:54.599Z,1005.63
2022-07-30T07:48:54.582Z,1005.6
2022-07-30T07:49:54.567Z,1005.64
2022-07-30T07:50:54.578Z,1005.67
2022-07-30T07:51:54.558Z,1005.6
2022-07-30T07:52:54.587Z,1005.6
2022-07-30T07:53:54.528Z,1005.66
2022-07-30T07:54:54.533Z,1005.65
2022-07-30T07:55:54.520Z,1005.67
2022-07-30T07:56:54.521Z,1005.63
2022-07-30T07:57:54.506Z,1005.62
2022-07-30T07:58:54.485Z,1005.62
2022-07-30T07:59:54.463Z,1005.61
2022-07-30T08:00:54.467Z,1005.62
2022-07-30T08:01:54.452Z,1005.63
2022-07-30T08:02:54.440Z,1005.63
2022-07-30T08:03:54.445Z,1005.65
2022-07-30T08:04:54.419Z,1005.65
2022-07-30T08:05:54.400Z,1005.64
2022-07-30T08:06:54.404Z,1005.65
2022-07-30T08:07:55.383Z,1005.66
2022-07-30T08:08:54.375Z,1005.67
2022-07-30T08:09:54.359Z,1005.68
2022-07-30T08:10:54.340Z,1005.61
2022-07-30T08:11:54.334Z,1005.64
2022-07-30T08:12:54.321Z,1005.62
2022-07-30T08:13:54.314Z,1005.56
2022-07-30T08:14:54.301Z,1005.58
2022-07-30T08:15:54.295Z,1005.61
2022-07-30T08:16:54.273Z,1005.6
2022-07-30T08:17:54.268Z,1005.59
2022-07-30T08:18:54.255Z,1005.62
2022-07-30T08:19:54.243Z,1005.58
2022-07-30T08:20:54.307Z,1005.52
2022-07-30T08:21:54.234Z,1005.58
2022-07-30T08:22:54.227Z,1005.56
2022-07-30T08:23:54.220Z,1005.54
2022-07-30T08:24:54.190Z,1005.51
2022-07-30T08:25:54.198Z,1005.49
2022-07-30T08:26:54.200Z,1005.49
2022-07-30T08:27:54.220Z,1005.48
2022-07-30T08:28:54.212Z,1005.39
2022-07-30T08:29:54.245Z,1005.46
2022-07-30T08:30:54.210Z,1005.48
2022-07-30T08:31:54.131Z,1005.49
2022-07-30T08:32:54.123Z,1005.55
2022-07-30T08:33:54.113Z,1005.55
2022-07-30T08:34:54.084Z,1005.48
2022-07-30T08:35:54.071Z,1005.45
2022-07-30T08:36:54.073Z,1005.43
2022-07-30T08:37:54.064Z,1005.44
2022-07-30T08:38:54.033Z,1005.47
2022-07-30T08:39:54.427Z,1005.46
2022-07-30T08:40:54.027Z,1005.45
2022-07-30T08:41:54.014Z,1005.45
2022-07-30T08:42:53.994Z,1005.4
2022-07-30T08:43:54.015Z,1005.38
2022-07-30T08:44:54.011Z,1005.41
2022-07-30T08:45:53.972Z,1005.4
2022-07-30T08:46:53.953Z,1005.37
2022-07-30T08:47:53.944Z,1005.48
2022-07-30T08:48:53.945Z,1005.44
2022-07-30T08:49:53.919Z,1005.39
2022-07-30T08:50:54.002Z,1005.38
2022-07-30T08:51:53.900Z,1005.36
2022-07-30T08:52:53.883Z,1005.35
2022-07-30T08:53:53.885Z,1005.37
2022-07-30T08:54:53.900Z,1005.4
2022-07-30T08:55:53.869Z,1005.39
2022-07-30T08:56:53.934Z,1005.43
2022-07-30T08:57:53.848Z,1005.38
2022-07-30T08:58:53.828Z,1005.44
2022-07-30T08:59:53.823Z,1005.45
2022-07-30T09:00:53.843Z,1005.43
2022-07-30T09:01:53.798Z,1005.44
2022-07-30T09:02:53.784Z,1005.45
2022-07-30T09:03:53.783Z,1005.5
2022-07-30T09:04:53.759Z,1005.5
2022-07-30T09:05:53.759Z,1005.49
2022-07-30T09:06:53.751Z,1005.55
2022-07-30T09:07:53.750Z,1005.51
2022-07-30T09:08:53.720Z,1005.57
2022-07-30T09:09:53.707Z,1005.58
2022-07-30T09:10:53.704Z,1005.61
2022-07-30T09:11:53.704Z,1005.63
2022-07-30T09:12:53.700Z,1005.58
2022-07-30T09:13:53.679Z,1005.62
2022-07-30T09:16:23.581Z,1005.6
2022-07-30T09:17:23.576Z,1005.54
2022-07-30T09:18:24.512Z,1005.57
2022-07-30T09:20:58.447Z,1005.57
2022-07-30T09:21:58.438Z,1005.63
2022-07-30T09:22:58.394Z,1005.62
2022-07-30T09:23:58.462Z,1005.6
2022-07-30T09:24:58.374Z,1005.57
2022-07-30T09:25:58.353Z,1005.54
2022-07-30T09:26:58.380Z,1005.55
2022-07-30T09:27:58.346Z,1005.55
2022-07-30T09:28:58.343Z,1005.6
2022-07-30T09:29:58.330Z,1005.55
2022-07-30T09:30:58.314Z,1005.54
2022-07-30T09:31:58.305Z,1005.49
2022-07-30T09:32:58.290Z,1005.53
2022-07-30T09:33:58.329Z,1005.56
2022-07-30T09:34:58.295Z,1005.59
2022-07-30T09:35:58.247Z,1005.57
2022-07-30T09:36:58.287Z,1005.63
2022-07-30T09:37:58.237Z,1005.66
2022-07-30T09:38:58.235Z,1005.68
2022-07-30T09:39:58.199Z,1005.71
2022-07-30T09:40:58.225Z,1005.61
2022-07-30T09:41:58.202Z,1005.67
2022-07-30T09:42:58.195Z,1005.68
2022-07-30T09:43:58.160Z,1005.63
2022-07-30T09:44:58.197Z,1005.53
2022-07-30T09:45:58.156Z,1005.67
2022-07-30T09:46:58.156Z,1005.61
2022-07-30T09:47:58.370Z,1005.67
2022-07-30T09:48:58.149Z,1005.61
2022-07-30T09:49:59.098Z,1005.62
2022-07-30T09:50:58.117Z,1005.61
2022-07-30T09:51:58.086Z,1005.66
2022-07-30T09:52:58.087Z,1005.63
2022-07-30T09:53:58.053Z,1005.66
2022-07-30T09:54:58.076Z,1005.62
2022-07-30T09:55:58.064Z,1005.64
2022-07-30T09:56:58.173Z,1005.69
2022-07-30T09:57:58.018Z,1005.67
2022-07-30T09:58:58.032Z,1005.65
2022-07-30T09:59:57.997Z,1005.66
2022-07-30T10:00:58.003Z,1005.68
2022-07-30T10:01:58.099Z,1005.64
2022-07-30T10:02:57.971Z,1005.64
2022-07-30T10:03:57.964Z,1005.6
2022-07-30T10:04:57.976Z,1005.66
2022-07-30T10:05:57.935Z,1005.62
2022-07-30T10:06:57.969Z,1005.63
2022-07-30T10:07:57.926Z,1005.52
2022-07-30T10:08:57.920Z,1005.57
2022-07-30T10:09:57.894Z,1005.63
2022-07-30T10:10:57.883Z,1005.61
2022-07-30T10:11:58.891Z,1005.57
2022-07-30T10:12:57.864Z,1005.55
2022-07-30T10:13:57.855Z,1005.65
2022-07-30T10:14:57.872Z,1005.67
2022-07-30T10:15:57.842Z,1005.66
2022-07-30T10:16:57.814Z,1005.7
2022-07-30T10:17:57.825Z,1005.58
2022-07-30T10:18:57.790Z,1005.55
2022-07-30T10:19:57.832Z,1005.58
2022-07-30T10:20:57.793Z,1005.69
2022-07-30T10:21:57.772Z,1005.65
2022-07-30T10:22:57.781Z,1005.61
2022-07-30T10:23:57.754Z,1005.65
2022-07-30T10:24:57.747Z,1005.67
2022-07-30T10:25:57.718Z,1005.63
2022-07-30T10:26:57.735Z,1005.63
2022-07-30T10:27:57.831Z,1005.69
2022-07-30T10:28:57.686Z,1005.61
2022-07-30T10:29:57.685Z,1005.64
2022-07-30T10:30:57.662Z,1005.61
2022-07-30T10:31:57.748Z,1005.59
2022-07-30T10:32:57.660Z,1005.62
2022-07-30T10:33:57.692Z,1005.68
2022-07-30T10:34:57.629Z,1005.61
2022-07-30T10:35:57.621Z,1005.58
2022-07-30T10:36:57.604Z,1005.55
2022-07-30T10:37:57.603Z,1005.54
2022-07-30T10:38:57.641Z,1005.64
2022-07-30T10:39:57.573Z,1005.63
2022-07-30T10:40:57.568Z,1005.62
2022-07-30T10:41:57.546Z,1005.62
2022-07-30T10:42:57.544Z,1005.62
2022-07-30T10:43:57.572Z,1005.62
2022-07-30T10:44:57.557Z,1005.58
2022-07-30T10:45:57.554Z,1005.65
2022-07-30T10:47:06.316Z,1005.6
2022-07-30T10:48:05.096Z,1005.6
2022-07-30T10:49:05.262Z,1005.61
2022-07-30T10:50:05.104Z,1005.66
2022-07-30T10:50:57.482Z,1005.55
2022-07-30T10:51:57.481Z,1005.65
2022-07-30T10:52:57.443Z,1005.6
2022-07-30T10:53:57.422Z,1005.62
2022-07-30T10:54:57.435Z,1005.56
2022-07-30T10:55:57.435Z,1005.6
2022-07-30T10:56:57.393Z,1005.53
2022-07-30T10:57:57.486Z,1005.51
2022-07-30T10:58:58.452Z,1005.58
2022-07-30T10:59:57.362Z,1005.56
2022-07-30T11:00:57.350Z,1005.52
2022-07-30T11:01:57.370Z,1005.49
2022-07-30T11:02:57.328Z,1005.51
2022-07-30T11:03:57.316Z,1005.51
2022-07-30T11:04:57.405Z,1005.54
2022-07-30T11:05:57.437Z,1005.51
2022-07-30T11:06:57.337Z,1005.38
2022-07-30T11:07:57.288Z,1005.45
2022-07-30T11:08:57.264Z,1005.48
2022-07-30T11:09:57.266Z,1005.45
2022-07-30T11:10:57.250Z,1005.48
2022-07-30T11:11:57.252Z,1005.5
2022-07-30T11:12:57.229Z,1005.5
2022-07-30T11:13:57.237Z,1005.51
2022-07-30T11:14:57.366Z,1005.5
2022-07-30T11:15:57.193Z,1005.47
2022-07-30T11:16:57.320Z,1005.53
2022-07-30T11:17:57.180Z,1005.45
2022-07-30T11:18:57.172Z,1005.53
2022-07-30T11:19:57.168Z,1005.51
2022-07-30T11:20:57.149Z,1005.53
2022-07-30T11:21:57.177Z,1005.56
2022-07-30T11:22:57.195Z,1005.55
2022-07-30T11:23:57.108Z,1005.51
2022-07-30T11:24:57.106Z,1005.58
2022-07-30T11:25:57.090Z,1005.54
2022-07-30T11:26:57.070Z,1005.52
2022-07-30T11:27:57.084Z,1005.53
2022-07-30T11:28:57.172Z,1005.53
2022-07-30T11:29:57.078Z,1005.53
2022-07-30T11:30:57.066Z,1005.58
2022-07-30T11:31:57.054Z,1005.58
2022-07-30T11:32:57.020Z,1005.52
2022-07-30T11:33:56.996Z,1005.51
2022-07-30T11:34:57.023Z,1005.51
2022-07-30T11:35:56.985Z,1005.53
2022-07-30T11:36:56.993Z,1005.57
2022-07-30T11:37:56.982Z,1005.45
2022-07-30T11:38:57.010Z,1005.58
2022-07-30T11:39:56.930Z,1005.56
2022-07-30T11:40:56.924Z,1005.45
2022-07-30T11:41:56.971Z,1005.49
2022-07-30T11:42:56.904Z,1005.61
2022-07-30T11:43:56.897Z,1005.41
2022-07-30T11:44:56.948Z,1005.41
2022-07-30T11:45:56.880Z,1005.4
2022-07-30T11:46:57.749Z,1005.42
2022-07-30T11:47:56.850Z,1005.44
2022-07-30T11:48:56.843Z,1005.4
2022-07-30T11:49:56.852Z,1005.45
2022-07-30T11:50:56.818Z,1005.52
2022-07-30T11:51:56.820Z,1005.46
2022-07-30T11:52:56.916Z,1005.48
2022-07-30T11:53:56.798Z,1005.5
2022-07-30T11:54:56.773Z,1005.48
2022-07-30T11:55:56.816Z,1005.51
2022-07-30T11:56:56.749Z,1005.42
2022-07-30T11:57:56.743Z,1005.44
2022-07-30T11:58:56.780Z,1005.42
2022-07-30T11:59:56.732Z,1005.4
2022-07-30T12:00:56.721Z,1005.37
2022-07-30T12:01:56.699Z,1005.45
2022-07-30T12:02:56.700Z,1005.43
2022-07-30T12:03:56.700Z,1005.49
2022-07-30T12:04:57.223Z,1005.5
2022-07-30T12:05:56.658Z,1005.51
2022-07-30T12:06:56.648Z,1005.44
2022-07-30T12:07:56.656Z,1005.44
2022-07-30T12:08:56.625Z,1005.4
2022-07-30T12:09:56.621Z,1005.46
2022-07-30T12:10:56.617Z,1005.41
2022-07-30T12:11:56.629Z,1005.41